sensor_id;sensor_type;location;lat;lon;timestamp;P1;durP1;ratioP1;P2;durP2;ratioP2
20251;SDS011;10284;58.364;15.550;2022-11-20T00:00:44;5.03;;;4.53;;
20251;SDS011;10284;58.364;15.550;2022-11-20T00:03:09;6.88;;;5.13;;
20251;SDS011;10284;58.364;15.550;2022-11-20T00:05:34;5.72;;;4.97;;
20251;SDS011;10284;58.364;15.550;2022-11-20T00:08:00;5.88;;;4.50;;
20251;SDS011;10284;58.364;15.550;2022-11-20T00:10:25;4.68;;;4.15;;
20251;SDS011;10284;58.364;15.550;2022-11-20T00:12:51;4.38;;;3.97;;
20251;SDS011;10284;58.364;15.550;2022-11-20T00:15:16;5.95;;;4.13;;
20251;SDS011;10284;58.364;15.550;2022-11-20T00:17:42;5.70;;;4.60;;
20251;SDS011;10284;58.364;15.550;2022-11-20T00:20:07;5.93;;;4.35;;
20251;SDS011;10284;58.364;15.550;2022-11-20T00:22:33;5.70;;;3.92;;
20251;SDS011;10284;58.364;15.550;2022-11-20T00:24:59;6.55;;;4.60;;
20251;SDS011;10284;58.364;15.550;2022-11-20T00:27:24;6.00;;;4.25;;
20251;SDS011;10284;58.364;15.550;2022-11-20T00:29:50;7.07;;;4.55;;
20251;SDS011;10284;58.364;15.550;2022-11-20T00:32:15;5.47;;;4.45;;
20251;SDS011;10284;58.364;15.550;2022-11-20T00:34:40;5.32;;;4.38;;
20251;SDS011;10284;58.364;15.550;2022-11-20T00:37:06;6.15;;;4.28;;
20251;SDS011;10284;58.364;15.550;2022-11-20T00:39:31;5.28;;;4.13;;
20251;SDS011;10284;58.364;15.550;2022-11-20T00:41:57;5.53;;;4.43;;
20251;SDS011;10284;58.364;15.550;2022-11-20T00:44:22;4.70;;;4.10;;
20251;SDS011;10284;58.364;15.550;2022-11-20T00:46:48;6.47;;;4.38;;
20251;SDS011;10284;58.364;15.550;2022-11-20T00:49:13;5.90;;;4.93;;
20251;SDS011;10284;58.364;15.550;2022-11-20T00:51:38;7.50;;;5.38;;
20251;SDS011;10284;58.364;15.550;2022-11-20T00:54:04;8.45;;;5.57;;
20251;SDS011;10284;58.364;15.550;2022-11-20T00:56:29;8.65;;;5.72;;
20251;SDS011;10284;58.364;15.550;2022-11-20T00:58:55;9.65;;;6.05;;
20251;SDS011;10284;58.364;15.550;2022-11-20T01:01:21;9.55;;;6.57;;
20251;SDS011;10284;58.364;15.550;2022-11-20T01:03:51;8.95;;;6.35;;
20251;SDS011;10284;58.364;15.550;2022-11-20T01:06:22;8.85;;;6.78;;
20251;SDS011;10284;58.364;15.550;2022-11-20T01:08:53;8.50;;;5.90;;
20251;SDS011;10284;58.364;15.550;2022-11-20T01:11:22;10.05;;;6.20;;
20251;SDS011;10284;58.364;15.550;2022-11-20T01:13:49;10.13;;;6.35;;
20251;SDS011;10284;58.364;15.550;2022-11-20T01:16:20;10.15;;;6.45;;
20251;SDS011;10284;58.364;15.550;2022-11-20T01:18:51;8.40;;;5.80;;
20251;SDS011;10284;58.364;15.550;2022-11-20T01:21:21;7.57;;;5.72;;
20251;SDS011;10284;58.364;15.550;2022-11-20T01:23:49;8.30;;;5.43;;
20251;SDS011;10284;58.364;15.550;2022-11-20T01:26:16;6.75;;;5.55;;
20251;SDS011;10284;58.364;15.550;2022-11-20T01:28:44;7.72;;;5.50;;
20251;SDS011;10284;58.364;15.550;2022-11-20T01:31:10;6.85;;;5.07;;
20251;SDS011;10284;58.364;15.550;2022-11-20T01:33:40;7.30;;;5.13;;
20251;SDS011;10284;58.364;15.550;2022-11-20T01:36:07;6.13;;;4.90;;
20251;SDS011;10284;58.364;15.550;2022-11-20T01:38:33;6.75;;;4.95;;
20251;SDS011;10284;58.364;15.550;2022-11-20T01:40:58;6.18;;;4.72;;
20251;SDS011;10284;58.364;15.550;2022-11-20T01:43:24;6.18;;;4.10;;
20251;SDS011;10284;58.364;15.550;2022-11-20T01:48:16;4.60;;;3.78;;
20251;SDS011;10284;58.364;15.550;2022-11-20T01:50:42;4.43;;;3.80;;
20251;SDS011;10284;58.364;15.550;2022-11-20T01:53:08;4.65;;;3.92;;
20251;SDS011;10284;58.364;15.550;2022-11-20T01:55:36;4.63;;;4.00;;
20251;SDS011;10284;58.364;15.550;2022-11-20T01:58:22;5.18;;;3.65;;
20251;SDS011;10284;58.364;15.550;2022-11-20T02:00:50;5.07;;;3.97;;
20251;SDS011;10284;58.364;15.550;2022-11-20T02:03:16;4.82;;;4.03;;
20251;SDS011;10284;58.364;15.550;2022-11-20T02:06:01;5.72;;;3.85;;
20251;SDS011;10284;58.364;15.550;2022-11-20T02:08:30;4.13;;;3.72;;
20251;SDS011;10284;58.364;15.550;2022-11-20T02:10:57;3.80;;;3.40;;
20251;SDS011;10284;58.364;15.550;2022-11-20T02:13:23;3.83;;;3.40;;
20251;SDS011;10284;58.364;15.550;2022-11-20T02:16:08;3.55;;;3.15;;
20251;SDS011;10284;58.364;15.550;2022-11-20T02:18:45;3.28;;;2.72;;
20251;SDS011;10284;58.364;15.550;2022-11-20T02:26:33;7.55;;;3.38;;
20251;SDS011;10284;58.364;15.550;2022-11-20T02:29:02;3.28;;;2.97;;
20251;SDS011;10284;58.364;15.550;2022-11-20T02:31:28;3.63;;;2.95;;
20251;SDS011;10284;58.364;15.550;2022-11-20T02:33:54;3.30;;;2.90;;
20251;SDS011;10284;58.364;15.550;2022-11-20T02:36:23;3.28;;;3.03;;
20251;SDS011;10284;58.364;15.550;2022-11-20T02:38:49;4.57;;;3.40;;
20251;SDS011;10284;58.364;15.550;2022-11-20T02:41:15;3.38;;;2.90;;
20251;SDS011;10284;58.364;15.550;2022-11-20T02:43:40;4.38;;;3.15;;
20251;SDS011;10284;58.364;15.550;2022-11-20T02:46:06;3.45;;;2.85;;
20251;SDS011;10284;58.364;15.550;2022-11-20T02:48:32;4.13;;;3.10;;
20251;SDS011;10284;58.364;15.550;2022-11-20T02:50:58;4.43;;;3.22;;
20251;SDS011;10284;58.364;15.550;2022-11-20T02:53:23;4.05;;;2.88;;
20251;SDS011;10284;58.364;15.550;2022-11-20T02:55:48;4.55;;;3.08;;
20251;SDS011;10284;58.364;15.550;2022-11-20T02:58:14;3.90;;;2.72;;
20251;SDS011;10284;58.364;15.550;2022-11-20T03:00:39;3.30;;;3.00;;
20251;SDS011;10284;58.364;15.550;2022-11-20T03:03:05;3.85;;;2.85;;
20251;SDS011;10284;58.364;15.550;2022-11-20T03:05:30;3.97;;;3.33;;
20251;SDS011;10284;58.364;15.550;2022-11-20T03:07:55;3.60;;;2.72;;
20251;SDS011;10284;58.364;15.550;2022-11-20T03:10:21;5.75;;;3.03;;
20251;SDS011;10284;58.364;15.550;2022-11-20T03:12:46;3.38;;;2.90;;
20251;SDS011;10284;58.364;15.550;2022-11-20T03:15:15;3.28;;;2.50;;
20251;SDS011;10284;58.364;15.550;2022-11-20T03:17:40;3.17;;;2.75;;
20251;SDS011;10284;58.364;15.550;2022-11-20T03:20:06;2.65;;;2.38;;
20251;SDS011;10284;58.364;15.550;2022-11-20T03:22:32;3.38;;;2.65;;
20251;SDS011;10284;58.364;15.550;2022-11-20T03:24:57;3.60;;;2.60;;
20251;SDS011;10284;58.364;15.550;2022-11-20T03:27:23;2.72;;;2.40;;
20251;SDS011;10284;58.364;15.550;2022-11-20T03:29:48;2.30;;;2.10;;
20251;SDS011;10284;58.364;15.550;2022-11-20T03:32:13;3.20;;;2.55;;
20251;SDS011;10284;58.364;15.550;2022-11-20T03:34:39;2.95;;;2.60;;
20251;SDS011;10284;58.364;15.550;2022-11-20T03:37:04;3.25;;;2.40;;
20251;SDS011;10284;58.364;15.550;2022-11-20T03:39:30;3.80;;;2.53;;
20251;SDS011;10284;58.364;15.550;2022-11-20T03:41:55;3.00;;;2.40;;
20251;SDS011;10284;58.364;15.550;2022-11-20T03:44:21;2.88;;;2.30;;
20251;SDS011;10284;58.364;15.550;2022-11-20T03:46:46;4.10;;;2.53;;
20251;SDS011;10284;58.364;15.550;2022-11-20T03:49:12;2.92;;;2.60;;
20251;SDS011;10284;58.364;15.550;2022-11-20T03:51:37;3.88;;;2.70;;
20251;SDS011;10284;58.364;15.550;2022-11-20T03:54:06;2.63;;;2.42;;
20251;SDS011;10284;58.364;15.550;2022-11-20T03:56:34;2.75;;;2.55;;
20251;SDS011;10284;58.364;15.550;2022-11-20T03:59:02;2.75;;;2.55;;
20251;SDS011;10284;58.364;15.550;2022-11-20T04:01:29;2.95;;;2.45;;
20251;SDS011;10284;58.364;15.550;2022-11-20T04:03:59;4.93;;;2.83;;
20251;SDS011;10284;58.364;15.550;2022-11-20T04:06:28;4.05;;;2.85;;
20251;SDS011;10284;58.364;15.550;2022-11-20T04:08:56;3.40;;;2.53;;
20251;SDS011;10284;58.364;15.550;2022-11-20T04:11:24;3.00;;;2.63;;
20251;SDS011;10284;58.364;15.550;2022-11-20T04:13:50;4.35;;;2.90;;
20251;SDS011;10284;58.364;15.550;2022-11-20T04:16:17;4.28;;;2.50;;
20251;SDS011;10284;58.364;15.550;2022-11-20T04:18:44;3.92;;;2.90;;
20251;SDS011;10284;58.364;15.550;2022-11-20T04:21:10;3.60;;;2.72;;
20251;SDS011;10284;58.364;15.550;2022-11-20T04:23:36;3.42;;;2.60;;
20251;SDS011;10284;58.364;15.550;2022-11-20T04:26:05;4.25;;;2.83;;
20251;SDS011;10284;58.364;15.550;2022-11-20T04:28:31;5.35;;;2.75;;
20251;SDS011;10284;58.364;15.550;2022-11-20T04:31:07;3.65;;;2.50;;
20251;SDS011;10284;58.364;15.550;2022-11-20T04:33:34;3.83;;;2.75;;
20251;SDS011;10284;58.364;15.550;2022-11-20T04:36:02;3.80;;;2.85;;
20251;SDS011;10284;58.364;15.550;2022-11-20T04:38:28;6.05;;;3.08;;
20251;SDS011;10284;58.364;15.550;2022-11-20T04:41:00;3.10;;;2.50;;
20251;SDS011;10284;58.364;15.550;2022-11-20T04:43:26;4.55;;;2.70;;
20251;SDS011;10284;58.364;15.550;2022-11-20T04:45:52;3.53;;;2.83;;
20251;SDS011;10284;58.364;15.550;2022-11-20T04:48:18;4.93;;;2.55;;
20251;SDS011;10284;58.364;15.550;2022-11-20T04:50:44;4.25;;;3.08;;
20251;SDS011;10284;58.364;15.550;2022-11-20T04:53:09;4.10;;;3.13;;
20251;SDS011;10284;58.364;15.550;2022-11-20T04:55:35;3.88;;;2.90;;
20251;SDS011;10284;58.364;15.550;2022-11-20T04:58:03;3.80;;;2.70;;
20251;SDS011;10284;58.364;15.550;2022-11-20T05:00:28;3.90;;;2.78;;
20251;SDS011;10284;58.364;15.550;2022-11-20T05:02:54;4.07;;;2.75;;
20251;SDS011;10284;58.364;15.550;2022-11-20T05:05:19;3.83;;;3.13;;
20251;SDS011;10284;58.364;15.550;2022-11-20T05:07:45;3.47;;;2.75;;
20251;SDS011;10284;58.364;15.550;2022-11-20T05:10:10;5.30;;;2.85;;
20251;SDS011;10284;58.364;15.550;2022-11-20T05:12:35;4.72;;;3.15;;
20251;SDS011;10284;58.364;15.550;2022-11-20T05:15:01;3.67;;;2.70;;
20251;SDS011;10284;58.364;15.550;2022-11-20T05:17:26;3.05;;;2.40;;
20251;SDS011;10284;58.364;15.550;2022-11-20T05:19:52;3.50;;;2.80;;
20251;SDS011;10284;58.364;15.550;2022-11-20T05:22:17;3.85;;;2.90;;
20251;SDS011;10284;58.364;15.550;2022-11-20T05:24:42;3.28;;;2.45;;
20251;SDS011;10284;58.364;15.550;2022-11-20T05:27:08;3.83;;;2.60;;
20251;SDS011;10284;58.364;15.550;2022-11-20T05:29:33;2.85;;;2.42;;
20251;SDS011;10284;58.364;15.550;2022-11-20T05:31:59;4.53;;;2.63;;
20251;SDS011;10284;58.364;15.550;2022-11-20T05:34:24;3.92;;;2.63;;
20251;SDS011;10284;58.364;15.550;2022-11-20T05:36:50;3.50;;;2.97;;
20251;SDS011;10284;58.364;15.550;2022-11-20T05:39:15;4.40;;;2.83;;
20251;SDS011;10284;58.364;15.550;2022-11-20T05:41:40;3.38;;;2.65;;
20251;SDS011;10284;58.364;15.550;2022-11-20T05:44:06;2.47;;;2.25;;
20251;SDS011;10284;58.364;15.550;2022-11-20T05:46:31;2.83;;;2.50;;
20251;SDS011;10284;58.364;15.550;2022-11-20T05:48:57;3.15;;;2.67;;
20251;SDS011;10284;58.364;15.550;2022-11-20T05:51:23;3.65;;;2.75;;
20251;SDS011;10284;58.364;15.550;2022-11-20T05:53:49;3.50;;;3.10;;
20251;SDS011;10284;58.364;15.550;2022-11-20T05:56:18;5.72;;;3.00;;
20251;SDS011;10284;58.364;15.550;2022-11-20T05:58:45;4.03;;;2.30;;
20251;SDS011;10284;58.364;15.550;2022-11-20T06:03:39;3.75;;;2.80;;
20251;SDS011;10284;58.364;15.550;2022-11-20T06:06:07;3.58;;;2.53;;
20251;SDS011;10284;58.364;15.550;2022-11-20T06:08:33;4.15;;;2.55;;
20251;SDS011;10284;58.364;15.550;2022-11-20T06:10:58;3.13;;;2.42;;
20251;SDS011;10284;58.364;15.550;2022-11-20T06:13:28;4.05;;;2.67;;
20251;SDS011;10284;58.364;15.550;2022-11-20T06:15:53;4.18;;;2.50;;
20251;SDS011;10284;58.364;15.550;2022-11-20T06:18:19;3.78;;;2.45;;
20251;SDS011;10284;58.364;15.550;2022-11-20T06:20:45;2.53;;;2.20;;
20251;SDS011;10284;58.364;15.550;2022-11-20T06:23:10;5.38;;;3.00;;
20251;SDS011;10284;58.364;15.550;2022-11-20T06:25:37;3.33;;;2.50;;
20251;SDS011;10284;58.364;15.550;2022-11-20T06:28:03;2.97;;;2.25;;
20251;SDS011;10284;58.364;15.550;2022-11-20T06:30:29;4.13;;;2.20;;
20251;SDS011;10284;58.364;15.550;2022-11-20T06:32:54;2.45;;;2.08;;
20251;SDS011;10284;58.364;15.550;2022-11-20T06:35:19;2.78;;;2.45;;
20251;SDS011;10284;58.364;15.550;2022-11-20T06:37:45;4.00;;;3.20;;
20251;SDS011;10284;58.364;15.550;2022-11-20T06:40:10;3.63;;;2.33;;
20251;SDS011;10284;58.364;15.550;2022-11-20T06:42:36;2.95;;;2.30;;
20251;SDS011;10284;58.364;15.550;2022-11-20T06:45:02;3.30;;;2.22;;
20251;SDS011;10284;58.364;15.550;2022-11-20T06:47:27;3.40;;;2.75;;
20251;SDS011;10284;58.364;15.550;2022-11-20T06:49:53;2.60;;;2.28;;
20251;SDS011;10284;58.364;15.550;2022-11-20T06:52:18;2.75;;;2.20;;
20251;SDS011;10284;58.364;15.550;2022-11-20T06:54:44;3.05;;;2.15;;
20251;SDS011;10284;58.364;15.550;2022-11-20T06:57:09;2.90;;;2.22;;
20251;SDS011;10284;58.364;15.550;2022-11-20T06:59:34;2.80;;;2.20;;
20251;SDS011;10284;58.364;15.550;2022-11-20T07:02:00;2.28;;;2.05;;
20251;SDS011;10284;58.364;15.550;2022-11-20T07:04:25;2.25;;;1.98;;
20251;SDS011;10284;58.364;15.550;2022-11-20T07:06:51;3.80;;;2.25;;
20251;SDS011;10284;58.364;15.550;2022-11-20T07:09:16;2.33;;;2.13;;
20251;SDS011;10284;58.364;15.550;2022-11-20T07:11:41;2.53;;;2.20;;
20251;SDS011;10284;58.364;15.550;2022-11-20T07:14:07;2.30;;;2.10;;
20251;SDS011;10284;58.364;15.550;2022-11-20T07:16:32;3.10;;;2.22;;
20251;SDS011;10284;58.364;15.550;2022-11-20T07:18:58;2.85;;;2.15;;
20251;SDS011;10284;58.364;15.550;2022-11-20T07:21:23;2.67;;;2.22;;
20251;SDS011;10284;58.364;15.550;2022-11-20T07:23:48;2.70;;;2.10;;
20251;SDS011;10284;58.364;15.550;2022-11-20T07:26:14;2.28;;;1.77;;
20251;SDS011;10284;58.364;15.550;2022-11-20T07:28:40;3.38;;;2.00;;
20251;SDS011;10284;58.364;15.550;2022-11-20T07:31:09;4.38;;;2.13;;
20251;SDS011;10284;58.364;15.550;2022-11-20T07:33:34;2.13;;;1.88;;
20251;SDS011;10284;58.364;15.550;2022-11-20T07:36:00;3.22;;;2.10;;
20251;SDS011;10284;58.364;15.550;2022-11-20T07:38:25;3.65;;;2.00;;
20251;SDS011;10284;58.364;15.550;2022-11-20T07:40:54;2.22;;;2.03;;
20251;SDS011;10284;58.364;15.550;2022-11-20T07:43:22;3.53;;;2.10;;
20251;SDS011;10284;58.364;15.550;2022-11-20T07:45:47;2.40;;;1.88;;
20251;SDS011;10284;58.364;15.550;2022-11-20T07:48:13;2.55;;;1.98;;
20251;SDS011;10284;58.364;15.550;2022-11-20T07:50:38;2.25;;;1.83;;
20251;SDS011;10284;58.364;15.550;2022-11-20T07:53:04;2.90;;;2.20;;
20251;SDS011;10284;58.364;15.550;2022-11-20T07:55:30;3.30;;;2.40;;
20251;SDS011;10284;58.364;15.550;2022-11-20T07:57:56;3.10;;;2.20;;
20251;SDS011;10284;58.364;15.550;2022-11-20T08:00:22;3.10;;;2.30;;
20251;SDS011;10284;58.364;15.550;2022-11-20T08:02:47;3.15;;;2.30;;
20251;SDS011;10284;58.364;15.550;2022-11-20T08:05:13;3.00;;;2.10;;
20251;SDS011;10284;58.364;15.550;2022-11-20T08:07:38;2.65;;;2.03;;
20251;SDS011;10284;58.364;15.550;2022-11-20T08:10:05;2.97;;;2.25;;
20251;SDS011;10284;58.364;15.550;2022-11-20T08:12:31;3.13;;;2.30;;
20251;SDS011;10284;58.364;15.550;2022-11-20T08:15:15;2.97;;;2.20;;
20251;SDS011;10284;58.364;15.550;2022-11-20T08:17:41;2.17;;;1.92;;
20251;SDS011;10284;58.364;15.550;2022-11-20T08:20:06;2.45;;;1.98;;
20251;SDS011;10284;58.364;15.550;2022-11-20T08:22:32;2.65;;;2.20;;
20251;SDS011;10284;58.364;15.550;2022-11-20T08:24:57;4.07;;;2.22;;
20251;SDS011;10284;58.364;15.550;2022-11-20T08:27:23;3.25;;;2.30;;
20251;SDS011;10284;58.364;15.550;2022-11-20T08:29:48;2.17;;;1.98;;
20251;SDS011;10284;58.364;15.550;2022-11-20T08:32:16;3.08;;;2.30;;
20251;SDS011;10284;58.364;15.550;2022-11-20T08:34:41;2.67;;;2.20;;
20251;SDS011;10284;58.364;15.550;2022-11-20T08:37:07;3.42;;;2.40;;
20251;SDS011;10284;58.364;15.550;2022-11-20T08:39:32;2.55;;;2.13;;
20251;SDS011;10284;58.364;15.550;2022-11-20T08:41:57;2.63;;;2.17;;
20251;SDS011;10284;58.364;15.550;2022-11-20T08:44:23;2.40;;;1.85;;
20251;SDS011;10284;58.364;15.550;2022-11-20T08:46:48;2.70;;;2.10;;
20251;SDS011;10284;58.364;15.550;2022-11-20T08:49:14;2.90;;;2.33;;
20251;SDS011;10284;58.364;15.550;2022-11-20T08:51:40;2.35;;;1.98;;
20251;SDS011;10284;58.364;15.550;2022-11-20T08:54:06;3.13;;;2.40;;
20251;SDS011;10284;58.364;15.550;2022-11-20T08:56:32;2.25;;;2.00;;
20251;SDS011;10284;58.364;15.550;2022-11-20T08:58:58;2.58;;;2.00;;
20251;SDS011;10284;58.364;15.550;2022-11-20T09:01:26;2.90;;;2.10;;
20251;SDS011;10284;58.364;15.550;2022-11-20T09:03:52;2.45;;;2.20;;
20251;SDS011;10284;58.364;15.550;2022-11-20T09:06:17;4.20;;;1.80;;
20251;SDS011;10284;58.364;15.550;2022-11-20T09:08:43;2.38;;;2.17;;
20251;SDS011;10284;58.364;15.550;2022-11-20T09:11:09;3.05;;;2.35;;
20251;SDS011;10284;58.364;15.550;2022-11-20T09:13:34;1.90;;;1.80;;
20251;SDS011;10284;58.364;15.550;2022-11-20T09:16:02;2.45;;;1.80;;
20251;SDS011;10284;58.364;15.550;2022-11-20T09:18:32;3.28;;;2.00;;
20251;SDS011;10284;58.364;15.550;2022-11-20T09:20:59;1.83;;;1.73;;
20251;SDS011;10284;58.364;15.550;2022-11-20T09:23:26;2.17;;;1.98;;
20251;SDS011;10284;58.364;15.550;2022-11-20T09:25:52;2.40;;;1.70;;
20251;SDS011;10284;58.364;15.550;2022-11-20T09:28:20;4.05;;;1.90;;
20251;SDS011;10284;58.364;15.550;2022-11-20T09:30:45;2.42;;;1.73;;
20251;SDS011;10284;58.364;15.550;2022-11-20T09:33:11;1.70;;;1.52;;
20251;SDS011;10284;58.364;15.550;2022-11-20T09:35:36;1.73;;;1.63;;
20251;SDS011;10284;58.364;15.550;2022-11-20T09:38:05;2.63;;;2.05;;
20251;SDS011;10284;58.364;15.550;2022-11-20T09:40:31;3.00;;;1.65;;
20251;SDS011;10284;58.364;15.550;2022-11-20T09:43:09;1.75;;;1.60;;
20251;SDS011;10284;58.364;15.550;2022-11-20T09:51:11;2.50;;;1.83;;
20251;SDS011;10284;58.364;15.550;2022-11-20T09:56:10;2.42;;;1.60;;
20251;SDS011;10284;58.364;15.550;2022-11-20T09:58:42;1.63;;;1.40;;
20251;SDS011;10284;58.364;15.550;2022-11-20T10:01:14;2.25;;;1.80;;
20251;SDS011;10284;58.364;15.550;2022-11-20T10:06:24;2.10;;;1.50;;
20251;SDS011;10284;58.364;15.550;2022-11-20T10:20:02;2.20;;;1.50;;
20251;SDS011;10284;58.364;15.550;2022-11-20T10:25:16;1.77;;;1.50;;
20251;SDS011;10284;58.364;15.550;2022-11-20T10:30:24;2.40;;;1.58;;
20251;SDS011;10284;58.364;15.550;2022-11-20T10:35:45;1.88;;;1.70;;
20251;SDS011;10284;58.364;15.550;2022-11-20T10:41:08;1.85;;;1.65;;
20251;SDS011;10284;58.364;15.550;2022-11-20T10:43:52;3.17;;;2.08;;
20251;SDS011;10284;58.364;15.550;2022-11-20T10:46:22;2.35;;;1.85;;
20251;SDS011;10284;58.364;15.550;2022-11-20T10:48:48;2.83;;;2.20;;
20251;SDS011;10284;58.364;15.550;2022-11-20T10:51:21;2.10;;;1.80;;
20251;SDS011;10284;58.364;15.550;2022-11-20T10:56:56;2.65;;;1.85;;
20251;SDS011;10284;58.364;15.550;2022-11-20T11:02:39;2.67;;;1.75;;
20251;SDS011;10284;58.364;15.550;2022-11-20T11:05:10;3.40;;;1.80;;
20251;SDS011;10284;58.364;15.550;2022-11-20T11:07:40;1.92;;;1.50;;
20251;SDS011;10284;58.364;15.550;2022-11-20T11:10:13;3.45;;;1.83;;
20251;SDS011;10284;58.364;15.550;2022-11-20T11:12:42;3.33;;;2.08;;
20251;SDS011;10284;58.364;15.550;2022-11-20T11:15:13;2.00;;;1.80;;
20251;SDS011;10284;58.364;15.550;2022-11-20T11:17:49;2.17;;;1.40;;
20251;SDS011;10284;58.364;15.550;2022-11-20T11:20:15;1.65;;;1.40;;
20251;SDS011;10284;58.364;15.550;2022-11-20T11:22:46;3.38;;;1.70;;
20251;SDS011;10284;58.364;15.550;2022-11-20T11:25:32;3.13;;;1.50;;
20251;SDS011;10284;58.364;15.550;2022-11-20T11:30:42;3.50;;;1.80;;
20251;SDS011;10284;58.364;15.550;2022-11-20T11:33:09;1.67;;;1.52;;
20251;SDS011;10284;58.364;15.550;2022-11-20T11:35:49;2.42;;;1.52;;
20251;SDS011;10284;58.364;15.550;2022-11-20T11:38:21;1.88;;;1.63;;
20251;SDS011;10284;58.364;15.550;2022-11-20T11:40:59;1.77;;;1.33;;
20251;SDS011;10284;58.364;15.550;2022-11-20T11:43:26;2.88;;;1.70;;
20251;SDS011;10284;58.364;15.550;2022-11-20T11:46:31;1.73;;;1.55;;
20251;SDS011;10284;58.364;15.550;2022-11-20T11:49:08;1.63;;;1.52;;
20251;SDS011;10284;58.364;15.550;2022-11-20T12:00:13;1.83;;;1.40;;
20251;SDS011;10284;58.364;15.550;2022-11-20T12:10:58;1.48;;;1.38;;
20251;SDS011;10284;58.364;15.550;2022-11-20T12:13:37;1.60;;;1.50;;
20251;SDS011;10284;58.364;15.550;2022-11-20T12:16:07;4.50;;;1.48;;
20251;SDS011;10284;58.364;15.550;2022-11-20T12:18:37;1.75;;;1.50;;
20251;SDS011;10284;58.364;15.550;2022-11-20T12:21:17;1.55;;;1.45;;
20251;SDS011;10284;58.364;15.550;2022-11-20T12:24:31;1.60;;;1.20;;
20251;SDS011;10284;58.364;15.550;2022-11-20T12:43:21;1.75;;;1.48;;
20251;SDS011;10284;58.364;15.550;2022-11-20T12:46:27;1.48;;;1.30;;
20251;SDS011;10284;58.364;15.550;2022-11-20T12:54:33;1.38;;;1.17;;
20251;SDS011;10284;58.364;15.550;2022-11-20T12:57:15;1.17;;;1.08;;
20251;SDS011;10284;58.364;15.550;2022-11-20T13:08:21;2.08;;;1.10;;
20251;SDS011;10284;58.364;15.550;2022-11-20T13:16:20;1.83;;;1.67;;
20251;SDS011;10284;58.364;15.550;2022-11-20T13:18:47;1.40;;;1.30;;
20251;SDS011;10284;58.364;15.550;2022-11-20T13:21:17;2.45;;;1.70;;
20251;SDS011;10284;58.364;15.550;2022-11-20T13:23:44;2.08;;;1.70;;
20251;SDS011;10284;58.364;15.550;2022-11-20T13:28:41;1.80;;;1.30;;
20251;SDS011;10284;58.364;15.550;2022-11-20T13:31:10;1.60;;;1.48;;
20251;SDS011;10284;58.364;15.550;2022-11-20T13:34:09;3.67;;;1.75;;
20251;SDS011;10284;58.364;15.550;2022-11-20T13:36:47;1.65;;;1.27;;
20251;SDS011;10284;58.364;15.550;2022-11-20T13:39:23;1.98;;;1.40;;
20251;SDS011;10284;58.364;15.550;2022-11-20T13:44:42;5.30;;;1.45;;
20251;SDS011;10284;58.364;15.550;2022-11-20T13:50:03;1.25;;;1.00;;
20251;SDS011;10284;58.364;15.550;2022-11-20T14:00:23;2.47;;;1.48;;
20251;SDS011;10284;58.364;15.550;2022-11-20T14:03:14;2.65;;;1.85;;
20251;SDS011;10284;58.364;15.550;2022-11-20T14:06:03;1.80;;;1.48;;
20251;SDS011;10284;58.364;15.550;2022-11-20T14:08:39;1.85;;;1.35;;
20251;SDS011;10284;58.364;15.550;2022-11-20T14:11:12;1.40;;;1.05;;
20251;SDS011;10284;58.364;15.550;2022-11-20T14:16:23;1.30;;;1.20;;
20251;SDS011;10284;58.364;15.550;2022-11-20T14:18:49;1.63;;;1.00;;
20251;SDS011;10284;58.364;15.550;2022-11-20T14:21:21;1.73;;;1.23;;
20251;SDS011;10284;58.364;15.550;2022-11-20T14:24:06;2.65;;;1.25;;
20251;SDS011;10284;58.364;15.550;2022-11-20T14:26:34;1.10;;;1.00;;
20251;SDS011;10284;58.364;15.550;2022-11-20T14:29:01;0.85;;;0.85;;
20251;SDS011;10284;58.364;15.550;2022-11-20T14:31:26;1.33;;;1.23;;
20251;SDS011;10284;58.364;15.550;2022-11-20T14:33:53;1.33;;;1.20;;
20251;SDS011;10284;58.364;15.550;2022-11-20T14:36:20;2.33;;;1.30;;
20251;SDS011;10284;58.364;15.550;2022-11-20T14:38:46;1.15;;;1.05;;
20251;SDS011;10284;58.364;15.550;2022-11-20T14:41:22;1.73;;;1.30;;
20251;SDS011;10284;58.364;15.550;2022-11-20T14:43:58;1.55;;;1.45;;
20251;SDS011;10284;58.364;15.550;2022-11-20T14:46:24;1.25;;;1.15;;
20251;SDS011;10284;58.364;15.550;2022-11-20T14:48:51;1.98;;;1.20;;
20251;SDS011;10284;58.364;15.550;2022-11-20T14:51:39;1.20;;;1.10;;
20251;SDS011;10284;58.364;15.550;2022-11-20T14:54:19;1.17;;;1.08;;
20251;SDS011;10284;58.364;15.550;2022-11-20T14:57:18;1.25;;;0.90;;
20251;SDS011;10284;58.364;15.550;2022-11-20T15:02:47;1.00;;;1.00;;
20251;SDS011;10284;58.364;15.550;2022-11-20T15:05:14;1.75;;;1.42;;
20251;SDS011;10284;58.364;15.550;2022-11-20T15:07:41;0.98;;;0.98;;
20251;SDS011;10284;58.364;15.550;2022-11-20T15:10:12;1.30;;;1.20;;
20251;SDS011;10284;58.364;15.550;2022-11-20T15:13:23;1.13;;;1.00;;
20251;SDS011;10284;58.364;15.550;2022-11-20T15:15:51;1.65;;;1.30;;
20251;SDS011;10284;58.364;15.550;2022-11-20T15:18:31;1.73;;;1.50;;
20251;SDS011;10284;58.364;15.550;2022-11-20T15:20:58;1.35;;;1.13;;
20251;SDS011;10284;58.364;15.550;2022-11-20T15:23:26;0.90;;;0.90;;
20251;SDS011;10284;58.364;15.550;2022-11-20T15:25:52;1.20;;;1.10;;
20251;SDS011;10284;58.364;15.550;2022-11-20T15:28:23;1.10;;;1.00;;
20251;SDS011;10284;58.364;15.550;2022-11-20T15:31:00;1.27;;;1.00;;
20251;SDS011;10284;58.364;15.550;2022-11-20T15:33:27;1.13;;;0.90;;
20251;SDS011;10284;58.364;15.550;2022-11-20T15:35:52;1.15;;;1.05;;
20251;SDS011;10284;58.364;15.550;2022-11-20T15:38:18;4.47;;;2.22;;
20251;SDS011;10284;58.364;15.550;2022-11-20T15:40:43;3.38;;;2.40;;
20251;SDS011;10284;58.364;15.550;2022-11-20T15:43:08;2.03;;;1.60;;
20251;SDS011;10284;58.364;15.550;2022-11-20T15:45:38;1.95;;;1.23;;
20251;SDS011;10284;58.364;15.550;2022-11-20T15:48:08;2.25;;;1.40;;
20251;SDS011;10284;58.364;15.550;2022-11-20T15:50:37;2.05;;;1.20;;
20251;SDS011;10284;58.364;15.550;2022-11-20T15:53:07;1.52;;;1.42;;
20251;SDS011;10284;58.364;15.550;2022-11-20T15:55:33;1.05;;;1.02;;
20251;SDS011;10284;58.364;15.550;2022-11-20T15:57:58;2.17;;;1.40;;
20251;SDS011;10284;58.364;15.550;2022-11-20T16:00:24;1.40;;;1.30;;
20251;SDS011;10284;58.364;15.550;2022-11-20T16:02:49;1.33;;;1.23;;
20251;SDS011;10284;58.364;15.550;2022-11-20T16:05:15;1.50;;;1.20;;
20251;SDS011;10284;58.364;15.550;2022-11-20T16:07:41;0.90;;;0.90;;
20251;SDS011;10284;58.364;15.550;2022-11-20T16:10:06;1.15;;;1.00;;
20251;SDS011;10284;58.364;15.550;2022-11-20T16:12:32;1.25;;;1.15;;
20251;SDS011;10284;58.364;15.550;2022-11-20T16:15:16;2.33;;;1.15;;
20251;SDS011;10284;58.364;15.550;2022-11-20T16:18:00;1.48;;;1.33;;
20251;SDS011;10284;58.364;15.550;2022-11-20T16:20:25;1.10;;;1.00;;
20251;SDS011;10284;58.364;15.550;2022-11-20T16:22:51;1.15;;;1.10;;
20251;SDS011;10284;58.364;15.550;2022-11-20T16:25:16;1.17;;;1.05;;
20251;SDS011;10284;58.364;15.550;2022-11-20T16:27:42;1.00;;;1.00;;
20251;SDS011;10284;58.364;15.550;2022-11-20T16:30:07;1.08;;;0.98;;
20251;SDS011;10284;58.364;15.550;2022-11-20T16:32:33;1.13;;;1.10;;
20251;SDS011;10284;58.364;15.550;2022-11-20T16:34:59;2.67;;;1.25;;
20251;SDS011;10284;58.364;15.550;2022-11-20T16:37:24;1.23;;;1.13;;
20251;SDS011;10284;58.364;15.550;2022-11-20T16:39:49;2.00;;;1.30;;
20251;SDS011;10284;58.364;15.550;2022-11-20T16:42:15;1.63;;;1.10;;
20251;SDS011;10284;58.364;15.550;2022-11-20T16:44:40;0.95;;;0.95;;
20251;SDS011;10284;58.364;15.550;2022-11-20T16:47:05;1.42;;;1.20;;